createdAt,value
2023-05-09T00:02:14.813Z,12.20
2023-05-09T00:04:41.727Z,10.95
2023-05-09T00:07:10.644Z,11.70
2023-05-09T00:09:37.325Z,11.70
2023-05-09T00:12:04.339Z,11.77
2023-05-09T00:14:33.600Z,11.45
2023-05-09T00:17:00.819Z,12.02
2023-05-09T00:19:27.604Z,11.25
2023-05-09T00:21:54.427Z,11.43
2023-05-09T00:24:21.198Z,12.00
2023-05-09T00:26:47.814Z,11.93
2023-05-09T00:29:14.489Z,11.70
2023-05-09T00:31:41.164Z,9.50
2023-05-09T00:34:07.866Z,8.88
2023-05-09T00:36:34.525Z,8.55
2023-05-09T00:39:01.546Z,9.02
2023-05-09T00:41:28.180Z,8.23
2023-05-09T00:43:54.848Z,8.45
2023-05-09T00:46:21.774Z,8.52
2023-05-09T00:48:48.657Z,8.15
2023-05-09T00:51:15.812Z,8.40
2023-05-09T00:53:42.614Z,8.32
2023-05-09T00:56:11.009Z,8.93
2023-05-09T00:58:38.401Z,8.15
2023-05-09T01:01:05.164Z,8.90
2023-05-09T01:03:32.549Z,8.98
2023-05-09T01:06:06.992Z,7.88
2023-05-09T01:08:44.574Z,7.80
2023-05-09T01:11:15.656Z,8.50
2023-05-09T01:13:57.804Z,7.95
2023-05-09T01:16:36.413Z,7.82
2023-05-09T01:19:27.562Z,7.40
2023-05-09T01:21:56.731Z,7.47
2023-05-09T01:24:59.632Z,7.50
2023-05-09T01:27:45.330Z,7.45
2023-05-09T01:30:13.874Z,7.43
2023-05-09T01:32:43.404Z,7.55
2023-05-09T01:35:13.401Z,7.03
2023-05-09T01:37:43.521Z,6.78
2023-05-09T01:40:14.658Z,7.15
2023-05-09T01:42:58.402Z,6.90
2023-05-09T01:45:27.098Z,7.07
2023-05-09T01:47:54.214Z,7.20
2023-05-09T01:50:22.511Z,7.30
2023-05-09T01:52:52.292Z,6.60
2023-05-09T01:55:21.156Z,7.07
2023-05-09T01:57:49.070Z,6.50
2023-05-09T02:00:16.601Z,6.97
2023-05-09T02:02:43.440Z,7.00
2023-05-09T02:05:11.451Z,6.28
2023-05-09T02:07:42.134Z,7.85
2023-05-09T02:10:11.036Z,6.95
2023-05-09T02:12:38.311Z,6.78
2023-05-09T02:15:06.568Z,7.28
2023-05-09T02:17:33.179Z,6.88
2023-05-09T02:19:59.839Z,6.70
2023-05-09T02:22:26.944Z,6.78
2023-05-09T02:24:53.548Z,7.07
2023-05-09T02:27:21.281Z,6.57
2023-05-09T02:29:51.519Z,7.10
2023-05-09T02:32:28.925Z,6.95
2023-05-09T02:34:57.327Z,7.03
2023-05-09T02:37:24.596Z,7.10
2023-05-09T02:39:51.863Z,7.50
2023-05-09T02:42:25.217Z,7.13
2023-05-09T02:44:52.931Z,6.85
2023-05-09T02:47:19.852Z,6.57
2023-05-09T02:49:46.431Z,6.40
2023-05-09T02:52:12.994Z,6.60
2023-05-09T02:54:39.934Z,6.35
2023-05-09T02:57:07.099Z,6.85
2023-05-09T02:59:33.985Z,7.03
2023-05-09T03:02:00.679Z,7.20
2023-05-09T03:04:27.322Z,6.78
2023-05-09T03:06:53.906Z,6.53
2023-05-09T03:09:20.425Z,7.15
2023-05-09T03:11:47.024Z,6.85
2023-05-09T03:14:14.906Z,7.07
2023-05-09T03:16:41.774Z,7.40
2023-05-09T03:19:08.624Z,6.72
2023-05-09T03:21:35.202Z,7.90
2023-05-09T03:24:01.980Z,6.90
2023-05-09T03:26:28.522Z,7.10
2023-05-09T03:28:55.083Z,7.10
2023-05-09T03:31:21.637Z,7.22
2023-05-09T03:33:48.261Z,8.15
2023-05-09T03:36:14.818Z,8.23
2023-05-09T03:38:41.353Z,8.88
2023-05-09T03:41:07.876Z,8.35
2023-05-09T03:43:34.430Z,8.70
2023-05-09T03:46:00.989Z,8.10
2023-05-09T03:48:27.576Z,8.48
2023-05-09T03:50:54.141Z,9.60
2023-05-09T03:53:20.734Z,9.38
2023-05-09T03:55:47.561Z,8.93
2023-05-09T03:58:14.837Z,8.75
2023-05-09T04:00:41.916Z,9.77
2023-05-09T04:03:08.608Z,9.63
2023-05-09T04:05:35.515Z,10.25
2023-05-09T04:08:02.995Z,9.43
2023-05-09T04:10:31.091Z,9.88
2023-05-09T04:12:57.708Z,11.40
2023-05-09T04:15:24.330Z,12.68
2023-05-09T04:17:50.924Z,12.10
2023-05-09T04:20:17.558Z,12.73
2023-05-09T04:22:46.705Z,12.27
2023-05-09T04:25:14.506Z,12.65
2023-05-09T04:27:41.351Z,12.80
2023-05-09T04:30:08.651Z,20.73
2023-05-09T04:32:35.883Z,16.65
2023-05-09T04:35:03.866Z,16.88
2023-05-09T04:37:31.602Z,16.15
2023-05-09T04:39:58.823Z,16.33
2023-05-09T04:42:25.728Z,15.52
2023-05-09T04:44:52.491Z,15.32
2023-05-09T04:47:19.120Z,15.23
2023-05-09T04:49:45.720Z,15.88
2023-05-09T04:52:12.560Z,17.25
2023-05-09T04:54:39.108Z,17.25
2023-05-09T04:57:17.376Z,17.92
2023-05-09T04:59:44.900Z,16.48
2023-05-09T05:02:11.636Z,18.02
2023-05-09T05:04:38.277Z,19.45
2023-05-09T05:07:05.294Z,20.33
2023-05-09T05:09:32.035Z,19.35
2023-05-09T05:12:01.759Z,18.48
2023-05-09T05:14:29.131Z,18.75
2023-05-09T05:16:55.810Z,17.60
2023-05-09T05:19:22.314Z,18.67
2023-05-09T05:21:48.886Z,17.30
2023-05-09T05:24:15.448Z,17.73
2023-05-09T05:26:42.009Z,18.52
2023-05-09T05:29:08.819Z,18.95
2023-05-09T05:31:36.397Z,18.85
2023-05-09T05:34:03.162Z,18.38
2023-05-09T05:36:29.743Z,19.33
2023-05-09T05:38:56.315Z,17.55
2023-05-09T05:41:23.504Z,18.55
2023-05-09T05:43:51.491Z,17.85
2023-05-09T05:46:19.632Z,18.23
2023-05-09T05:48:46.241Z,17.73
2023-05-09T05:51:12.821Z,17.30
2023-05-09T05:53:39.419Z,16.88
2023-05-09T05:56:06.437Z,17.45
2023-05-09T05:58:33.021Z,18.65
2023-05-09T06:00:59.686Z,18.45
2023-05-09T06:03:26.357Z,18.20
2023-05-09T06:05:53.088Z,18.33
2023-05-09T06:08:19.620Z,18.42
2023-05-09T06:10:46.155Z,17.52
2023-05-09T06:13:12.960Z,19.75
2023-05-09T06:15:39.600Z,19.23
2023-05-09T06:18:06.299Z,18.25
2023-05-09T06:20:33.017Z,19.23
2023-05-09T06:22:59.572Z,18.13
2023-05-09T06:25:26.128Z,18.08
2023-05-09T06:27:52.692Z,17.25
2023-05-09T06:30:26.312Z,18.63
2023-05-09T06:32:55.054Z,17.70
2023-05-09T06:35:22.114Z,16.88
2023-05-09T06:37:49.182Z,18.40
2023-05-09T06:40:17.091Z,17.42
2023-05-09T06:42:44.314Z,17.35
2023-05-09T06:45:11.561Z,17.20
2023-05-09T06:47:38.216Z,18.02
2023-05-09T06:50:05.255Z,18.05
2023-05-09T06:52:31.784Z,16.58
2023-05-09T06:54:58.368Z,16.80
2023-05-09T06:57:25.091Z,16.13
2023-05-09T06:59:51.612Z,16.48
2023-05-09T07:02:18.170Z,16.45
2023-05-09T07:04:44.833Z,16.52
2023-05-09T07:07:11.428Z,15.98
2023-05-09T07:09:38.083Z,15.98
2023-05-09T07:12:04.995Z,15.15
2023-05-09T07:14:31.586Z,15.82
2023-05-09T07:17:09.887Z,15.55
2023-05-09T07:19:44.736Z,5.78
2023-05-09T07:22:11.389Z,12.80
2023-05-09T07:24:37.990Z,14.15
2023-05-09T07:27:04.657Z,13.07
2023-05-09T07:29:31.238Z,14.27
2023-05-09T07:31:57.848Z,13.38
2023-05-09T07:34:25.531Z,12.82
2023-05-09T07:36:52.254Z,12.13
2023-05-09T07:39:19.022Z,12.13
2023-05-09T07:41:46.993Z,9.35
2023-05-09T07:44:15.024Z,10.02
2023-05-09T07:46:42.252Z,10.23
2023-05-09T07:49:08.996Z,9.30
2023-05-09T07:51:35.804Z,10.38
2023-05-09T07:54:02.379Z,9.13
2023-05-09T07:56:28.999Z,9.30
2023-05-09T07:58:55.936Z,8.68
2023-05-09T08:01:22.544Z,8.18
2023-05-09T08:03:49.408Z,8.77
2023-05-09T08:06:16.205Z,8.50
2023-05-09T08:08:42.837Z,8.75
2023-05-09T08:11:09.438Z,8.55
2023-05-09T08:13:36.131Z,8.40
2023-05-09T08:16:02.988Z,6.90
2023-05-09T08:18:29.599Z,8.05
2023-05-09T08:20:56.290Z,7.75
2023-05-09T08:23:22.944Z,7.30
2023-05-09T08:25:53.576Z,7.05
2023-05-09T08:28:22.081Z,6.93
2023-05-09T08:30:48.657Z,7.28
2023-05-09T08:33:15.215Z,7.60
2023-05-09T08:35:41.802Z,7.70
2023-05-09T08:38:08.601Z,6.75
2023-05-09T08:40:38.635Z,6.00
2023-05-09T08:43:07.329Z,6.45
2023-05-09T08:45:38.558Z,6.28
2023-05-09T08:48:06.739Z,6.97
2023-05-09T08:50:33.449Z,6.60
2023-05-09T08:53:00.120Z,6.45
2023-05-09T08:55:27.639Z,5.65
2023-05-09T08:57:54.441Z,6.53
2023-05-09T09:00:21.381Z,6.00
2023-05-09T09:02:48.977Z,5.85
2023-05-09T09:05:39.491Z,6.13
2023-05-09T09:08:04.109Z,5.60
2023-05-09T09:10:32.698Z,5.10
2023-05-09T09:13:00.511Z,5.40
2023-05-09T09:15:34.339Z,4.97
2023-05-09T09:18:09.258Z,4.30
2023-05-09T09:20:40.537Z,5.00
2023-05-09T09:23:10.623Z,5.07
2023-05-09T09:25:37.457Z,4.15
2023-05-09T09:28:04.909Z,4.68
2023-05-09T09:30:31.601Z,4.20
2023-05-09T09:33:01.183Z,4.50
2023-05-09T09:35:27.875Z,4.10
2023-05-09T09:38:00.201Z,4.40
2023-05-09T09:40:26.974Z,4.25
2023-05-09T09:42:53.610Z,4.60
2023-05-09T09:45:20.471Z,4.13
2023-05-09T09:47:50.055Z,3.63
2023-05-09T09:50:18.403Z,3.30
2023-05-09T09:52:52.851Z,4.35
2023-05-09T09:55:20.979Z,5.45
2023-05-09T09:57:48.418Z,3.83
2023-05-09T10:00:17.264Z,4.90
2023-05-09T10:02:48.464Z,4.80
2023-05-09T10:05:26.418Z,4.55
2023-05-09T10:07:59.106Z,3.92
2023-05-09T10:10:35.078Z,4.60
2023-05-09T10:13:07.686Z,5.25
2023-05-09T10:15:49.239Z,4.83
2023-05-09T10:18:27.372Z,3.47
2023-05-09T10:20:56.535Z,3.65
2023-05-09T10:23:24.233Z,3.28
2023-05-09T10:26:16.557Z,3.00
2023-05-09T10:28:46.081Z,3.10
2023-05-09T10:31:16.289Z,3.40
2023-05-09T10:33:48.428Z,3.35
2023-05-09T10:36:26.609Z,3.45
2023-05-09T10:38:54.936Z,3.60
2023-05-09T10:41:22.581Z,3.40
2023-05-09T10:43:49.564Z,3.75
2023-05-09T10:46:17.495Z,3.35
2023-05-09T10:48:44.911Z,3.40
2023-05-09T10:51:12.600Z,4.07
2023-05-09T10:53:44.124Z,3.83
2023-05-09T10:56:33.493Z,3.50
2023-05-09T10:59:00.706Z,3.95
2023-05-09T11:01:35.199Z,2.75
2023-05-09T11:04:09.984Z,2.85
2023-05-09T11:06:51.546Z,3.42
2023-05-09T11:09:27.681Z,3.78
2023-05-09T11:12:14.159Z,3.72
2023-05-09T11:14:43.469Z,3.92
2023-05-09T11:17:22.235Z,2.90
2023-05-09T11:19:51.381Z,3.78
2023-05-09T11:22:21.558Z,2.80
2023-05-09T11:24:50.105Z,3.33
2023-05-09T11:27:20.221Z,2.67
2023-05-09T11:29:54.695Z,2.63
2023-05-09T11:32:22.418Z,2.72
2023-05-09T11:34:49.722Z,2.90
2023-05-09T11:37:18.081Z,3.30
2023-05-09T11:40:04.740Z,3.60
2023-05-09T11:42:31.970Z,5.30
2023-05-09T11:44:59.309Z,5.25
2023-05-09T11:47:28.926Z,5.53
2023-05-09T11:49:55.993Z,5.90
2023-05-09T11:52:22.598Z,4.70
2023-05-09T11:54:49.749Z,4.50
2023-05-09T11:57:19.563Z,4.30
2023-05-09T11:59:46.262Z,4.57
2023-05-09T12:02:13.607Z,4.50
2023-05-09T12:04:40.412Z,3.97
2023-05-09T12:07:07.181Z,3.90
2023-05-09T12:09:37.967Z,3.33
2023-05-09T12:12:12.311Z,2.75
2023-05-09T12:14:40.698Z,2.97
2023-05-09T12:17:08.303Z,2.97
2023-05-09T12:19:35.443Z,2.20
2023-05-09T12:22:03.849Z,2.70
2023-05-09T12:24:31.428Z,2.63
2023-05-09T12:26:59.647Z,2.40
2023-05-09T12:29:27.164Z,1.88
2023-05-09T12:31:54.622Z,2.05
2023-05-09T12:34:21.546Z,1.90
2023-05-09T12:36:51.586Z,1.70
2023-05-09T12:39:21.835Z,1.60
2023-05-09T12:42:00.933Z,1.52
2023-05-09T12:44:30.025Z,1.55
2023-05-09T12:46:57.954Z,1.60
2023-05-09T12:49:25.061Z,1.65
2023-05-09T12:51:53.694Z,1.60
2023-05-09T12:54:22.404Z,1.50
2023-05-09T12:56:52.036Z,1.42
2023-05-09T12:59:26.027Z,1.30
2023-05-09T13:02:01.928Z,1.20
2023-05-09T13:04:28.997Z,1.40
2023-05-09T13:06:59.837Z,1.27
2023-05-09T13:09:30.044Z,1.30
2023-05-09T13:11:56.630Z,1.10
2023-05-09T13:14:23.372Z,1.20
2023-05-09T13:16:50.102Z,1.20
2023-05-09T13:19:16.890Z,1.20
2023-05-09T13:21:43.634Z,1.13
2023-05-09T13:24:10.192Z,1.10
2023-05-09T13:26:36.815Z,1.30
2023-05-09T13:29:03.537Z,1.10
2023-05-09T13:31:30.975Z,1.30
2023-05-09T13:33:57.802Z,1.20
2023-05-09T13:36:24.441Z,1.20
2023-05-09T13:38:51.067Z,1.30
2023-05-09T13:41:21.727Z,1.05
2023-05-09T13:43:48.482Z,1.73
2023-05-09T13:46:15.138Z,3.65
2023-05-09T13:48:41.927Z,3.33
2023-05-09T13:51:08.817Z,3.20
2023-05-09T13:53:38.127Z,3.20
2023-05-09T13:56:09.811Z,3.30
2023-05-09T13:58:36.699Z,4.07
2023-05-09T14:01:03.494Z,4.85
2023-05-09T14:03:30.141Z,4.28
2023-05-09T14:05:56.722Z,4.70
2023-05-09T14:08:23.581Z,4.93
2023-05-09T14:10:50.114Z,3.47
2023-05-09T14:13:16.745Z,4.60
2023-05-09T14:15:43.487Z,3.30
2023-05-09T14:18:10.030Z,4.45
2023-05-09T14:20:37.647Z,3.45
2023-05-09T14:23:04.311Z,4.32
2023-05-09T14:25:30.867Z,3.75
2023-05-09T14:27:59.435Z,3.72
2023-05-09T14:30:26.695Z,3.13
2023-05-09T14:33:10.454Z,3.20
2023-05-09T14:35:43.146Z,3.70
2023-05-09T14:38:09.824Z,3.92
2023-05-09T14:40:36.408Z,2.90
2023-05-09T14:43:03.062Z,2.80
2023-05-09T14:45:30.502Z,2.60
2023-05-09T14:47:57.784Z,2.60
2023-05-09T14:50:24.536Z,2.03
2023-05-09T14:52:51.313Z,2.42
2023-05-09T14:55:18.592Z,2.30
2023-05-09T14:57:45.820Z,2.25
2023-05-09T15:00:21.452Z,2.30
2023-05-09T15:02:49.063Z,2.45
2023-05-09T15:05:16.741Z,2.60
2023-05-09T15:07:43.398Z,2.40
2023-05-09T15:10:10.482Z,2.25
2023-05-09T15:12:37.002Z,2.10
2023-05-09T15:15:18.147Z,2.40
2023-05-09T15:17:45.388Z,2.17
2023-05-09T15:20:15.169Z,2.35
2023-05-09T15:22:42.446Z,2.20
2023-05-09T15:25:09.407Z,2.38
2023-05-09T15:27:36.446Z,2.00
2023-05-09T15:30:03.993Z,2.90
2023-05-09T15:32:30.605Z,3.50
2023-05-09T15:34:57.262Z,3.95
2023-05-09T15:37:23.940Z,4.30
2023-05-09T15:39:51.002Z,3.53
2023-05-09T15:42:19.135Z,3.00
2023-05-09T15:44:47.296Z,3.78
2023-05-09T15:47:13.896Z,4.45
2023-05-09T15:49:40.774Z,6.20
2023-05-09T15:52:09.303Z,7.00
2023-05-09T15:54:37.269Z,5.47
2023-05-09T15:57:04.698Z,5.05
2023-05-09T15:59:31.309Z,5.05
2023-05-09T16:01:57.913Z,5.13
2023-05-09T16:04:24.766Z,4.38
2023-05-09T16:06:52.111Z,4.75
2023-05-09T16:09:19.614Z,4.75
2023-05-09T16:11:46.469Z,4.03
2023-05-09T16:14:13.781Z,4.55
2023-05-09T16:16:40.691Z,5.38
2023-05-09T16:19:07.420Z,5.05
2023-05-09T16:21:34.396Z,5.95
2023-05-09T16:24:03.032Z,5.90
2023-05-09T16:26:29.762Z,5.72
2023-05-09T16:28:56.732Z,6.05
2023-05-09T16:31:27.486Z,5.25
2023-05-09T16:33:54.423Z,4.60
2023-05-09T16:36:21.397Z,5.13
2023-05-09T16:38:48.182Z,5.63
2023-05-09T16:41:14.904Z,6.57
2023-05-09T16:43:41.558Z,6.05
2023-05-09T16:46:08.469Z,6.80
2023-05-09T16:48:35.427Z,7.40
2023-05-09T16:51:02.030Z,7.18
2023-05-09T16:53:28.778Z,7.47
2023-05-09T16:55:55.559Z,7.10
2023-05-09T16:58:22.172Z,7.63
2023-05-09T17:00:51.905Z,6.90
2023-05-09T17:03:18.541Z,5.07
2023-05-09T17:05:45.139Z,6.85
2023-05-09T17:08:11.767Z,6.90
2023-05-09T17:10:39.544Z,6.78
2023-05-09T17:13:08.864Z,8.38
2023-05-09T17:15:35.884Z,5.82
2023-05-09T17:18:03.202Z,7.00
2023-05-09T17:20:30.094Z,7.50
2023-05-09T17:22:57.117Z,5.70
2023-05-09T17:25:23.818Z,6.43
2023-05-09T17:27:50.460Z,6.80
2023-05-09T17:30:17.935Z,6.38
2023-05-09T17:32:46.200Z,6.40
2023-05-09T17:35:13.782Z,6.60
2023-05-09T17:37:40.917Z,5.55
2023-05-09T17:40:08.204Z,6.30
2023-05-09T17:42:34.948Z,5.82
2023-05-09T17:45:01.511Z,5.40
2023-05-09T17:47:28.910Z,5.65
2023-05-09T17:49:55.602Z,6.07
2023-05-09T17:52:22.129Z,6.00
2023-05-09T17:54:48.955Z,6.13
2023-05-09T17:57:15.797Z,6.05
2023-05-09T17:59:42.344Z,6.28
2023-05-09T18:02:08.971Z,5.88
2023-05-09T18:04:35.724Z,5.50
2023-05-09T18:07:03.998Z,6.00
2023-05-09T18:09:31.029Z,6.18
2023-05-09T18:11:59.108Z,5.95
2023-05-09T18:14:25.741Z,4.82
2023-05-09T18:16:52.565Z,5.35
2023-05-09T18:19:19.268Z,5.47
2023-05-09T18:21:45.866Z,5.90
2023-05-09T18:24:13.138Z,5.28
2023-05-09T18:26:40.906Z,5.43
2023-05-09T18:29:07.826Z,5.88
2023-05-09T18:31:38.832Z,4.55
2023-05-09T18:34:06.067Z,6.45
2023-05-09T18:36:32.869Z,5.97
2023-05-09T18:38:59.699Z,5.13
2023-05-09T18:41:26.669Z,5.40
2023-05-09T18:43:53.286Z,5.60
2023-05-09T18:46:22.913Z,5.70
2023-05-09T18:48:52.783Z,5.18
2023-05-09T18:51:20.087Z,5.78
2023-05-09T18:53:47.416Z,5.40
2023-05-09T18:56:14.413Z,5.63
2023-05-09T18:58:41.416Z,5.40
2023-05-09T19:01:11.551Z,5.20
2023-05-09T19:03:45.760Z,5.07
2023-05-09T19:06:14.120Z,4.88
2023-05-09T19:08:41.920Z,4.82
2023-05-09T19:11:09.144Z,4.78
2023-05-09T19:13:37.261Z,4.82
2023-05-09T19:16:08.815Z,4.57
2023-05-09T19:18:35.516Z,4.47
2023-05-09T19:21:02.137Z,4.82
2023-05-09T19:23:28.751Z,4.47
2023-05-09T19:25:55.748Z,4.30
2023-05-09T19:28:25.137Z,5.18
2023-05-09T19:30:52.196Z,5.63
2023-05-09T19:33:19.649Z,5.28
2023-05-09T19:35:46.306Z,5.97
2023-05-09T19:38:12.962Z,5.18
2023-05-09T19:40:40.216Z,3.70
2023-05-09T19:43:06.896Z,3.20
2023-05-09T19:45:33.457Z,3.00
2023-05-09T19:48:00.709Z,1.33
2023-05-09T19:50:27.393Z,1.58
2023-05-09T19:52:53.973Z,1.40
2023-05-09T19:55:20.667Z,1.38
2023-05-09T19:57:47.347Z,1.52
2023-05-09T20:00:14.468Z,1.50
2023-05-09T20:02:41.351Z,1.33
2023-05-09T20:05:08.442Z,1.40
2023-05-09T20:07:35.027Z,1.30
2023-05-09T20:10:01.639Z,1.30
2023-05-09T20:12:30.192Z,1.10
2023-05-09T20:14:57.127Z,1.42
2023-05-09T20:17:23.757Z,1.55
2023-05-09T20:19:50.320Z,1.38
2023-05-09T20:22:16.885Z,1.40
2023-05-09T20:24:43.532Z,1.25
2023-05-09T20:27:10.093Z,1.40
2023-05-09T20:29:36.689Z,1.40
2023-05-09T20:32:03.473Z,1.40
2023-05-09T20:34:30.104Z,1.20
2023-05-09T20:36:56.735Z,1.45
2023-05-09T20:39:24.577Z,1.25
2023-05-09T20:41:52.163Z,1.60
2023-05-09T20:44:19.195Z,1.30
2023-05-09T20:46:46.246Z,1.50
2023-05-09T20:49:13.098Z,1.38
2023-05-09T20:51:40.015Z,1.58
2023-05-09T20:54:06.924Z,1.10
2023-05-09T20:56:35.392Z,1.40
2023-05-09T20:59:03.989Z,1.30
2023-05-09T21:01:37.358Z,1.40
2023-05-09T21:04:05.715Z,1.50
2023-05-09T21:06:33.119Z,1.30
2023-05-09T21:08:59.711Z,1.30
2023-05-09T21:11:26.358Z,1.30
2023-05-09T21:13:52.882Z,1.48
2023-05-09T21:16:19.574Z,1.30
2023-05-09T21:18:46.153Z,1.30
2023-05-09T21:21:12.688Z,1.30
2023-05-09T21:23:39.294Z,1.20
2023-05-09T21:26:05.978Z,1.10
2023-05-09T21:28:32.801Z,1.10
2023-05-09T21:31:01.656Z,1.08
2023-05-09T21:33:28.349Z,1.00
2023-05-09T21:35:54.981Z,1.05
2023-05-09T21:38:21.560Z,0.82
2023-05-09T21:40:50.137Z,0.90
2023-05-09T21:43:18.346Z,0.93
2023-05-09T21:45:45.915Z,0.85
2023-05-09T21:48:12.553Z,0.82
2023-05-09T21:50:39.241Z,0.70
2023-05-09T21:53:06.412Z,1.00
2023-05-09T21:55:33.090Z,0.80
2023-05-09T21:57:59.669Z,1.00
2023-05-09T22:00:26.413Z,0.90
2023-05-09T22:02:53.144Z,1.05
2023-05-09T22:05:19.763Z,1.00
2023-05-09T22:07:46.334Z,0.90
2023-05-09T22:10:13.135Z,0.80
2023-05-09T22:12:39.785Z,0.80
2023-05-09T22:15:07.232Z,0.90
2023-05-09T22:17:33.787Z,0.85
2023-05-09T22:20:00.513Z,0.82
2023-05-09T22:22:27.209Z,0.88
2023-05-09T22:24:53.844Z,0.98
2023-05-09T22:27:20.832Z,0.88
2023-05-09T22:29:47.841Z,0.90
2023-05-09T22:32:14.526Z,0.88
2023-05-09T22:34:41.060Z,0.90
2023-05-09T22:37:07.837Z,0.70
2023-05-09T22:39:34.444Z,0.90
2023-05-09T22:42:02.508Z,0.80
2023-05-09T22:44:30.034Z,0.93
2023-05-09T22:46:56.602Z,0.80
2023-05-09T22:49:23.204Z,0.90
2023-05-09T22:51:49.828Z,0.80
2023-05-09T22:54:21.239Z,0.80
2023-05-09T22:56:47.802Z,0.90
2023-05-09T22:59:14.452Z,0.70
2023-05-09T23:01:41.110Z,0.77
2023-05-09T23:04:08.028Z,0.90
2023-05-09T23:06:34.614Z,0.77
2023-05-09T23:09:01.209Z,0.88
2023-05-09T23:11:27.761Z,0.90
2023-05-09T23:13:54.457Z,0.82
2023-05-09T23:16:21.170Z,0.90
2023-05-09T23:18:47.761Z,0.70
2023-05-09T23:21:14.425Z,0.80
2023-05-09T23:23:40.983Z,0.80
2023-05-09T23:26:07.561Z,0.82
2023-05-09T23:28:34.470Z,0.80
2023-05-09T23:31:01.297Z,0.60
2023-05-09T23:33:27.935Z,0.70
2023-05-09T23:35:54.819Z,0.63
2023-05-09T23:38:21.381Z,0.50
2023-05-09T23:40:48.184Z,0.65
2023-05-09T23:43:15.141Z,0.70
2023-05-09T23:45:41.878Z,0.77
2023-05-09T23:48:08.502Z,0.70
2023-05-09T23:50:35.113Z,0.70
2023-05-09T23:53:01.761Z,0.70
2023-05-09T23:55:28.314Z,0.60
2023-05-09T23:57:54.950Z,0.80
